Time;durP1;ratioP1;P1;durP2;ratioP2;P2;SDS_P1;SDS_P2;PMS_P1;PMS_P2;Temp;Humidity;BMP_temperature;BMP_pressure;BME280_temperature;BME280_humidity;BME280_pressure;Samples;Min_cycle;Max_cycle;Signal;HPM_P1;HPM_P2
2023/08/08 00:03:08;;;;;;;2.87;1.67;;;;;;;13.81;100.00;99812.42;5137647;56;1139221;-65
2023/08/08 00:08:14;;;;;;;4.53;2.08;;;;;;;13.75;100.00;99819.19;5138121;56;1139303;-65
2023/08/08 00:13:19;;;;;;;6.40;1.90;;;;;;;13.70;100.00;99822.83;5136007;56;1138838;-65
2023/08/08 00:18:25;;;;;;;6.70;2.23;;;;;;;13.67;100.00;99827.95;5073394;57;1138530;-66
2023/08/08 00:23:31;;;;;;;6.50;2.00;;;;;;;13.66;100.00;99836.08;5052314;57;1138624;-66
2023/08/08 00:28:36;;;;;;;5.08;1.87;;;;;;;13.63;100.00;99834.56;5053547;57;1139292;-66
2023/08/08 00:33:42;;;;;;;5.57;1.60;;;;;;;13.66;100.00;99829.44;5072927;56;1138779;-66
2023/08/08 00:38:49;;;;;;;8.53;1.60;;;;;;;13.65;100.00;99829.09;5053391;57;1138899;-66
2023/08/08 00:43:54;;;;;;;4.93;1.73;;;;;;;13.68;100.00;99832.78;5053016;56;1138833;-66
2023/08/08 00:49:01;;;;;;;3.03;1.27;;;;;;;13.68;100.00;99835.44;5071979;57;1138949;-65
2023/08/08 00:54:08;;;;;;;16.03;1.60;;;;;;;13.71;100.00;99829.81;5112772;56;1138732;-65
2023/08/08 00:59:15;;;;;;;5.83;1.87;;;;;;;13.74;100.00;99833.50;4959631;57;1140901;-65
2023/08/08 01:04:21;;;;;;;3.20;1.47;;;;;;;13.76;100.00;99834.15;5127838;56;1138926;-65
2023/08/08 01:09:49;;;;;;;8.98;2.33;;;;;;;13.79;100.00;99833.84;5147746;56;1138926;-65
2023/08/08 01:14:56;;;;;;;7.77;2.53;;;;;;;13.83;100.00;99827.73;5125582;56;1138984;-65
2023/08/08 01:20:03;;;;;;;6.53;1.80;;;;;;;13.81;100.00;99821.73;5127141;56;1138804;-65
2023/08/08 01:25:11;;;;;;;7.30;2.03;;;;;;;13.82;100.00;99821.58;5167695;56;1138520;-65
2023/08/08 01:30:16;;;;;;;15.03;2.10;;;;;;;13.84;100.00;99824.08;5127277;56;1138630;-65
2023/08/08 01:35:23;;;;;;;3.33;1.63;;;;;;;13.88;100.00;99822.78;5069822;56;1140989;-65
2023/08/08 01:40:30;;;;;;;5.95;1.98;;;;;;;13.91;100.00;99824.61;5062920;56;1138728;-66
2023/08/08 01:45:37;;;;;;;4.80;1.70;;;;;;;13.91;100.00;99821.95;5062328;57;1138605;-65
2023/08/08 01:50:43;;;;;;;4.17;1.80;;;;;;;13.95;100.00;99829.95;5042427;56;1138782;-65
2023/08/08 01:55:48;;;;;;;4.50;2.00;;;;;;;13.98;100.00;99836.79;5111024;56;1139033;-65
2023/08/08 02:00:54;;;;;;;6.23;1.80;;;;;;;13.97;100.00;99832.46;5158657;56;1138784;-65
2023/08/08 02:05:59;;;;;;;5.55;2.10;;;;;;;14.00;100.00;99830.33;5138279;56;1138661;-66
2023/08/08 02:11:05;;;;;;;4.17;1.50;;;;;;;13.99;100.00;99836.64;5138305;56;1138745;-65
2023/08/08 02:16:12;;;;;;;4.53;1.80;;;;;;;14.01;100.00;99837.31;5123633;56;1138952;-67
2023/08/08 02:21:17;;;;;;;5.33;1.55;;;;;;;14.02;100.00;99837.66;5053434;57;1138694;-65
2023/08/08 02:26:23;;;;;;;9.25;1.95;;;;;;;14.01;100.00;99838.64;5053490;57;1138986;-66
2023/08/08 02:31:28;;;;;;;3.23;1.60;;;;;;;14.01;100.00;99837.31;5053870;57;1138946;-65
2023/08/08 02:36:35;;;;;;;10.33;1.83;;;;;;;14.00;100.00;99838.30;5122864;56;1138655;-66
2023/08/08 02:41:41;;;;;;;5.30;1.60;;;;;;;13.97;100.00;99840.44;5106336;56;1140824;-65
2023/08/08 02:46:46;;;;;;;7.00;1.90;;;;;;;13.94;100.00;99843.41;5133221;56;1138711;-66
2023/08/08 02:51:52;;;;;;;2.07;1.30;;;;;;;13.94;100.00;99847.39;5102431;56;1138701;-65
2023/08/08 02:56:58;;;;;;;3.33;1.83;;;;;;;13.89;100.00;99851.04;5123656;56;1138759;-65
2023/08/08 03:02:04;;;;;;;8.93;1.67;;;;;;;13.87;100.00;99859.16;5133831;56;1138507;-66
2023/08/08 03:07:11;;;;;;;4.60;1.43;;;;;;;13.83;100.00;99856.97;5153856;56;1138920;-65
2023/08/08 03:12:17;;;;;;;5.22;1.65;;;;;;;13.80;100.00;99857.27;5133779;56;1138775;-66
2023/08/08 03:17:22;;;;;;;7.30;2.27;;;;;;;13.75;100.00;99860.91;5070212;56;1138783;-65
2023/08/08 03:22:29;;;;;;;8.97;2.10;;;;;;;13.71;100.00;99865.20;5057976;57;1138894;-65
2023/08/08 03:27:35;;;;;;;4.80;1.77;;;;;;;13.67;100.00;99868.31;5077624;56;1138647;-65
2023/08/08 03:32:41;;;;;;;3.57;1.70;;;;;;;13.59;100.00;99869.09;5057538;56;1138979;-65
2023/08/08 03:37:47;;;;;;;6.20;2.03;;;;;;;13.56;100.00;99869.89;5057520;57;1138969;-67
2023/08/08 03:42:52;;;;;;;9.03;2.03;;;;;;;13.53;100.00;99875.51;4913816;58;1138765;-65
2023/08/08 03:47:58;;;;;;;7.57;1.67;;;;;;;13.48;100.00;99881.77;5076986;56;1138882;-66
2023/08/08 03:53:04;;;;;;;5.60;2.93;;;;;;;13.45;100.00;99882.90;5057794;57;1138589;-65
2023/08/08 03:58:10;;;;;;;3.53;1.70;;;;;;;13.36;100.00;99883.33;5026327;57;1138883;-65
2023/08/08 04:03:17;;;;;;;10.23;1.50;;;;;;;13.34;100.00;99888.45;5035863;57;1138850;-65
2023/08/08 04:08:23;;;;;;;3.43;1.47;;;;;;;13.33;100.00;99890.27;5035586;57;1140729;-66
2023/08/08 04:13:29;;;;;;;3.67;2.13;;;;;;;13.26;100.00;99897.69;5040071;56;1138687;-66
2023/08/08 04:18:34;;;;;;;5.67;2.33;;;;;;;13.25;100.00;99896.84;5139769;56;1138672;-66
2023/08/08 04:23:40;;;;;;;6.30;1.67;;;;;;;13.27;100.00;99895.37;5119808;56;1138567;-66
2023/08/08 04:28:45;;;;;;;5.83;2.00;;;;;;;13.26;100.00;99896.36;5046541;56;1138896;-66
2023/08/08 04:33:51;;;;;;;8.10;2.07;;;;;;;13.28;100.00;99902.36;5055985;56;1138823;-66
2023/08/08 04:38:57;;;;;;;6.60;1.87;;;;;;;13.28;100.00;99907.67;5036463;56;1138704;-65
2023/08/08 04:44:02;;;;;;;8.47;3.83;;;;;;;13.26;100.00;99917.11;5034902;56;1138652;-65
2023/08/08 04:49:08;;;;;;;4.03;1.57;;;;;;;13.27;100.00;99924.09;5056029;57;1139177;-65
2023/08/08 04:54:15;;;;;;;3.50;1.96;;;;;;;13.27;100.00;99927.24;5053755;57;1138736;-66
2023/08/08 04:59:20;;;;;;;2.50;1.52;;;;;;;13.31;100.00;99929.91;5043799;56;1138699;-65
2023/08/08 05:04:26;;;;;;;5.87;1.75;;;;;;;13.36;100.00;99942.26;5053863;56;1138940;-65
2023/08/08 05:09:31;;;;;;;1.70;1.40;;;;;;;13.41;100.00;99924.06;5073888;57;1138836;-65
2023/08/08 05:14:37;;;;;;;5.17;1.23;;;;;;;13.43;100.00;99946.00;5077550;56;1138804;-66
2023/08/08 05:19:42;;;;;;;5.90;1.40;;;;;;;13.51;100.00;99939.42;5138152;56;1138661;-65
2023/08/08 05:24:48;;;;;;;5.07;1.50;;;;;;;13.53;100.00;99947.23;5088539;56;1138769;-65
2023/08/08 05:29:54;;;;;;;4.50;1.70;;;;;;;13.52;100.00;99954.87;5053667;57;1138670;-65
2023/08/08 05:35:00;;;;;;;4.27;1.50;;;;;;;13.55;100.00;99949.25;5053033;56;1139051;-65
2023/08/08 05:40:07;;;;;;;5.37;1.93;;;;;;;13.60;100.00;99957.09;5072178;56;1138610;-65
2023/08/08 05:45:13;;;;;;;3.30;1.40;;;;;;;13.65;100.00;99956.16;5053780;57;1138802;-66
2023/08/08 05:50:19;;;;;;;3.07;1.70;;;;;;;13.71;100.00;99955.55;5053758;57;1138723;-65
2023/08/08 05:55:24;;;;;;;2.54;1.12;;;;;;;13.72;100.00;99972.34;5053002;57;1138967;-65
2023/08/08 06:00:31;;;;;;;5.40;1.37;;;;;;;13.68;100.00;99964.32;5073601;57;1139150;-65
2023/08/08 06:05:37;;;;;;;2.00;1.20;;;;;;;13.65;100.00;99988.05;5058612;56;1138870;-66
2023/08/08 06:10:43;;;;;;;3.47;1.40;;;;;;;13.63;100.00;99981.20;5053806;56;1138748;-66
2023/08/08 06:15:48;;;;;;;3.40;1.40;;;;;;;13.64;100.00;99996.16;5073159;56;1138866;-65
2023/08/08 06:20:54;;;;;;;2.03;1.17;;;;;;;13.63;100.00;99994.48;5053799;56;1138368;-65
2023/08/08 06:26:00;;;;;;;4.57;1.30;;;;;;;13.62;100.00;100002.95;5053638;57;1138665;-65
2023/08/08 06:31:05;;;;;;;1.93;1.00;;;;;;;13.67;100.00;100011.31;5073321;57;1140985;-66
2023/08/08 06:36:11;;;;;;;3.90;1.27;;;;;;;13.68;100.00;100030.75;5052221;56;1140843;-66
2023/08/08 06:41:17;;;;;;;8.63;1.40;;;;;;;13.69;100.00;100029.28;5052484;57;1140809;-67
2023/08/08 06:46:24;;;;;;;5.00;1.43;;;;;;;13.71;100.00;100031.79;5052681;56;1140972;-65
2023/08/08 06:51:29;;;;;;;1.20;1.10;;;;;;;13.67;100.00;100032.58;5091087;56;1140943;-65
2023/08/08 06:56:35;;;;;;;4.93;1.50;;;;;;;13.72;100.00;100024.16;5053734;56;1140886;-66
2023/08/08 07:01:41;;;;;;;2.73;1.60;;;;;;;13.71;100.00;100030.46;5071560;56;1140966;-66
2023/08/08 07:06:46;;;;;;;4.00;1.47;;;;;;;13.73;100.00;100015.20;5092722;56;1140955;-66
2023/08/08 07:11:52;;;;;;;1.50;1.20;;;;;;;13.82;100.00;100009.45;5137036;56;1140724;-65
2023/08/08 07:16:58;;;;;;;4.77;1.17;;;;;;;13.88;100.00;100019.50;5073524;56;1140871;-65
2023/08/08 07:22:04;;;;;;;4.03;1.30;;;;;;;13.95;100.00;100016.06;5072621;57;1140612;-66
2023/08/08 07:27:10;;;;;;;2.97;1.40;;;;;;;13.98;100.00;100027.72;5052906;57;1140921;-67
2023/08/08 07:32:15;;;;;;;3.23;1.20;;;;;;;14.02;100.00;100025.59;5051651;56;1140698;-66
2023/08/08 07:37:21;;;;;;;5.63;1.33;;;;;;;14.10;100.00;100041.61;5051467;57;1140804;-66
2023/08/08 07:42:27;;;;;;;3.33;1.65;;;;;;;14.16;100.00;100033.03;5073063;57;1140926;-66
2023/08/08 07:47:32;;;;;;;2.65;1.35;;;;;;;14.23;100.00;100039.88;5052679;57;1140918;-67
2023/08/08 07:52:39;;;;;;;3.53;1.50;;;;;;;14.35;100.00;100057.30;5072844;57;1140855;-66
2023/08/08 07:57:45;;;;;;;2.13;1.50;;;;;;;14.50;100.00;100061.10;5090967;57;1140858;-65
2023/08/08 08:02:50;;;;;;;6.77;1.73;;;;;;;14.60;100.00;100071.64;5101197;56;1140698;-65
2023/08/08 08:07:56;;;;;;;3.70;1.33;;;;;;;14.59;100.00;100068.64;5059540;57;1240873;-66
2023/08/08 08:13:01;;;;;;;4.27;1.37;;;;;;;14.57;100.00;100071.45;5061766;56;1140839;-66
2023/08/08 08:18:07;;;;;;;4.62;1.50;;;;;;;14.57;100.00;100067.95;5041806;56;1140810;-66
2023/08/08 08:23:13;;;;;;;5.63;1.03;;;;;;;14.56;100.00;100061.79;5042351;56;1140726;-66
2023/08/08 08:28:18;;;;;;;2.40;1.47;;;;;;;14.59;100.00;100061.48;5061634;57;1140927;-68
2023/08/08 08:33:24;;;;;;;3.10;1.47;;;;;;;14.71;100.00;100062.89;5041431;56;1141042;-66
2023/08/08 08:38:30;;;;;;;2.72;1.57;;;;;;;14.88;100.00;100061.17;5040777;56;1141009;-66
2023/08/08 08:43:36;;;;;;;2.40;1.12;;;;;;;15.02;100.00;100057.08;5062201;56;1140606;-65
2023/08/08 08:48:42;;;;;;;6.17;1.27;;;;;;;15.11;100.00;100066.30;5041588;56;1140981;-66
2023/08/08 08:53:48;;;;;;;6.10;1.63;;;;;;;15.08;100.00;100059.95;5040460;56;1196734;-67
2023/08/08 08:58:54;;;;;;;3.87;1.10;;;;;;;15.09;100.00;100060.30;5062060;56;1141020;-65
2023/08/08 09:04:00;;;;;;;5.50;1.20;;;;;;;15.19;100.00;100060.16;4993823;57;1140949;-66
2023/08/08 09:09:06;;;;;;;5.90;1.30;;;;;;;15.33;100.00;100056.05;5032432;56;1152264;-66
2023/08/08 09:14:24;;;;;;;2.87;1.23;;;;;;;15.40;100.00;100070.42;5067954;57;1140740;-66
2023/08/08 09:19:31;;;;;;;1.10;1.00;;;;;;;15.46;100.00;100079.08;5036005;57;1140927;-66
2023/08/08 09:24:42;;;;;;;9.08;1.70;;;;;;;15.53;100.00;100077.95;5046269;57;1153008;-65
2023/08/08 09:29:47;;;;;;;6.50;1.10;;;;;;;15.53;100.00;100076.12;5067236;57;1141020;-65
2023/08/08 09:34:53;;;;;;;4.13;1.53;;;;;;;15.57;100.00;100070.84;5041932;57;1140933;-67
2023/08/08 09:40:00;;;;;;;3.87;1.27;;;;;;;15.45;100.00;100078.25;4971827;58;1140908;-66
2023/08/08 09:45:07;;;;;;;4.33;1.33;;;;;;;15.43;100.00;100074.06;5069224;57;1141114;-65
2023/08/08 09:50:13;;;;;;;3.73;0.93;;;;;;;15.65;100.00;100073.52;5043011;57;1159314;-66
2023/08/08 09:55:20;;;;;;;2.23;1.30;;;;;;;15.78;100.00;100067.22;5029076;57;1245129;-66
2023/08/08 10:00:27;;;;;;;6.03;1.37;;;;;;;15.89;100.00;100071.39;5045554;57;1247819;-66
2023/08/08 10:05:33;;;;;;;4.50;1.47;;;;;;;16.02;100.00;100061.11;5015416;57;1141488;-64
2023/08/08 10:10:40;;;;;;;2.87;1.37;;;;;;;16.09;100.00;100075.44;5027375;57;1179759;-64
2023/08/08 10:15:46;;;;;;;1.33;0.90;;;;;;;16.19;100.00;100071.30;5044536;56;1141755;-65
2023/08/08 10:20:53;;;;;;;0.90;0.83;;;;;;;16.31;100.00;100084.64;5095580;56;1256910;-66
2023/08/08 10:25:58;;;;;;;2.23;1.00;;;;;;;16.40;100.00;100066.77;5054021;56;1250246;-65
2023/08/08 10:31:08;;;;;;;1.93;1.00;;;;;;;16.53;100.00;100052.41;5049564;56;1255130;-65
2023/08/08 10:36:13;;;;;;;2.27;1.00;;;;;;;16.85;100.00;100064.41;5082528;56;1247638;-65
2023/08/08 10:41:21;;;;;;;3.20;1.30;;;;;;;16.98;100.00;100050.52;5057913;56;1239199;-65
2023/08/08 10:46:31;;;;;;;3.08;0.88;;;;;;;16.86;100.00;100051.89;5038452;57;1254251;-66
2023/08/08 10:51:45;;;;;;;1.33;1.00;;;;;;;16.78;100.00;100051.92;5038371;56;1259320;-65
2023/08/08 10:56:52;;;;;;;2.57;1.27;;;;;;;17.01;100.00;100050.68;5060280;56;1247051;-65
2023/08/08 11:01:58;;;;;;;1.53;0.83;;;;;;;17.13;100.00;100035.94;5057291;56;1239175;-66
2023/08/08 11:07:04;;;;;;;1.93;0.90;;;;;;;17.51;100.00;100045.80;5045715;56;1235616;-65
2023/08/08 11:12:15;;;;;;;7.33;1.17;;;;;;;17.43;100.00;100071.22;5072993;56;1247626;-65
2023/08/08 11:17:21;;;;;;;2.43;0.97;;;;;;;16.61;100.00;100058.26;5069456;56;1256895;-67
2023/08/08 11:22:27;;;;;;;1.00;0.90;;;;;;;16.29;100.00;100074.63;5045711;56;1250239;-65
2023/08/08 11:27:32;;;;;;;1.37;0.60;;;;;;;16.50;100.00;100072.27;5088902;56;1140672;-66
2023/08/08 11:32:40;;;;;;;0.90;0.85;;;;;;;16.76;100.00;100064.11;5065988;56;1255287;-65
2023/08/08 11:37:47;;;;;;;2.20;1.20;;;;;;;16.85;100.00;100063.58;5052497;56;1140917;-65
2023/08/08 11:42:54;;;;;;;1.83;1.07;;;;;;;16.94;100.00;100057.23;5076218;56;1258984;-65
2023/08/08 11:48:00;;;;;;;3.50;1.30;;;;;;;17.34;100.00;100046.05;5052962;56;1141009;-65
2023/08/08 11:53:07;;;;;;;1.65;1.30;;;;;;;17.60;100.00;100057.27;5060868;56;1141076;-66
2023/08/08 11:58:14;;;;;;;2.20;1.20;;;;;;;17.81;100.00;100057.53;5085282;56;1221637;-65
2023/08/08 12:03:20;;;;;;;2.22;1.04;;;;;;;17.73;100.00;100058.90;5053435;56;1141017;-65
2023/08/08 12:08:26;;;;;;;2.77;1.12;;;;;;;17.43;100.00;100069.05;5053531;56;1141029;-64
2023/08/08 12:13:35;;;;;;;2.60;1.02;;;;;;;17.04;100.00;100054.35;5081416;56;1140680;-65
2023/08/08 12:18:41;;;;;;;2.67;1.00;;;;;;;17.05;100.00;100046.67;5056825;57;1140689;-65
2023/08/08 12:23:48;;;;;;;1.27;1.07;;;;;;;17.29;100.00;100044.39;5061577;56;1141105;-67
2023/08/08 12:28:54;;;;;;;1.47;1.00;;;;;;;17.57;100.00;100038.39;5089555;56;1140519;-66
2023/08/08 12:33:59;;;;;;;3.72;1.52;;;;;;;18.05;100.00;100045.81;5057600;56;1141123;-66
2023/08/08 12:39:05;;;;;;;4.42;1.45;;;;;;;18.49;100.00;100050.47;5057044;57;1140720;-66
2023/08/08 12:44:11;;;;;;;1.32;1.22;;;;;;;18.72;100.00;100050.46;5077240;57;1140939;-66
2023/08/08 12:49:17;;;;;;;1.80;0.93;;;;;;;18.68;100.00;100058.53;5055645;57;1140595;-65
2023/08/08 12:54:23;;;;;;;2.60;1.62;;;;;;;18.60;100.00;100043.39;5052630;56;1141069;-67
2023/08/08 12:59:29;;;;;;;2.87;1.25;;;;;;;18.65;100.00;100032.10;5091960;56;1140862;-66
2023/08/08 13:04:35;;;;;;;2.83;1.07;;;;;;;18.54;100.00;100055.61;5078032;57;1140782;-66
2023/08/08 13:09:40;;;;;;;3.80;1.17;;;;;;;18.26;100.00;100068.75;5057813;57;1140956;-66
2023/08/08 13:14:46;;;;;;;2.15;1.10;;;;;;;17.63;100.00;100089.02;5056815;57;1141018;-66
2023/08/08 13:19:52;;;;;;;1.25;0.90;;;;;;;17.13;100.00;100078.19;5077354;57;1141055;-65
2023/08/08 13:24:57;;;;;;;2.20;1.23;;;;;;;17.01;100.00;100073.39;5057784;56;1140781;-65
2023/08/08 13:30:04;;;;;;;1.72;1.62;;;;;;;16.94;100.00;100063.91;5103883;56;1140686;-65
2023/08/08 13:35:10;;;;;;;1.90;1.10;;;;;;;16.98;100.00;100063.04;5117336;56;1140934;-65
2023/08/08 13:40:15;;;;;;;3.53;1.30;;;;;;;16.98;100.00;100072.39;5076420;56;1141074;-66
2023/08/08 13:45:22;;;;;;;3.70;1.33;;;;;;;16.90;100.00;100069.25;5073394;56;1140867;-66
2023/08/08 13:50:28;;;;;;;4.10;1.10;;;;;;;17.16;100.00;100063.16;5057356;56;1140735;-65
2023/08/08 13:55:39;;;;;;;5.25;1.40;;;;;;;17.59;100.00;100060.45;5095069;56;1141062;-65
2023/08/08 14:00:40;;;;;;;2.20;1.00;;;;;;;18.07;100.00;100050.48;5084611;56;1140954;-66
2023/08/08 14:05:46;;;;;;;5.17;3.12;;;;;;;18.52;100.00;100054.96;5083332;56;1140828;-66
2023/08/08 14:10:52;;;;;;;5.17;1.70;;;;;;;18.82;100.00;100042.98;5076856;57;1140736;-65
2023/08/08 14:15:58;;;;;;;4.58;2.20;;;;;;;19.13;100.00;100044.97;5053368;57;1140850;-65
2023/08/08 14:21:05;;;;;;;4.70;1.50;;;;;;;19.35;100.00;100055.27;5052329;56;1141072;-64
2023/08/08 14:26:11;;;;;;;2.87;1.50;;;;;;;19.43;100.00;100051.64;5085655;56;1140856;-65
2023/08/08 14:31:16;;;;;;;2.08;1.27;;;;;;;19.52;100.00;100044.69;5066951;56;1141007;-65
2023/08/08 14:36:22;;;;;;;2.35;1.45;;;;;;;19.48;100.00;100045.22;4913421;58;1140761;-66
2023/08/08 14:41:28;;;;;;;4.33;1.20;;;;;;;19.48;100.00;100045.22;5077265;56;1140824;-67
2023/08/08 14:46:34;;;;;;;3.72;2.05;;;;;;;19.39;100.00;100047.69;5074516;56;1141079;-65
2023/08/08 14:51:39;;;;;;;1.60;1.50;;;;;;;19.38;100.00;100058.09;4959467;57;1140875;-66
2023/08/08 14:56:45;;;;;;;1.32;1.22;;;;;;;19.33;100.00;100050.09;5044103;56;1140636;-66
2023/08/08 15:01:51;;;;;;;1.52;0.80;;;;;;;19.38;100.00;100065.63;5062311;56;1141046;-65
2023/08/08 15:06:56;;;;;;;4.30;1.62;;;;;;;19.07;100.00;100089.13;5042319;57;1141592;-66
2023/08/08 15:12:02;;;;;;;3.37;1.30;;;;;;;18.69;100.00;100085.64;5042326;57;1141061;-66
2023/08/08 15:17:08;;;;;;;1.87;1.50;;;;;;;18.45;100.00;100094.20;5062138;57;1140720;-66
2023/08/08 15:22:13;;;;;;;0.78;0.78;;;;;;;18.15;100.00;100118.69;5042161;57;1140648;-65
2023/08/08 15:27:19;;;;;;;2.47;1.10;;;;;;;17.87;100.00;100121.02;5042264;57;1140827;-65
2023/08/08 15:32:24;;;;;;;3.75;1.25;;;;;;;17.70;100.00;100130.66;5042222;56;1141110;-66
2023/08/08 15:37:30;;;;;;;1.37;0.90;;;;;;;17.10;100.00;100157.39;5062278;57;1141014;-66
2023/08/08 15:42:35;;;;;;;1.10;0.68;;;;;;;17.10;100.00;100157.39;5042166;57;1141097;-65
2023/08/08 15:47:41;;;;;;;0.45;0.45;;;;;;;16.54;100.00;100184.90;5041674;56;1140654;-65
2023/08/08 15:52:47;;;;;;;2.17;0.90;;;;;;;15.82;100.00;100182.40;5061925;57;1140931;-65
2023/08/08 15:57:53;;;;;;;0.97;0.70;;;;;;;15.32;100.00;100200.93;5041838;57;1140881;-64
2023/08/08 16:02:59;;;;;;;2.90;1.63;;;;;;;15.12;100.00;100198.47;5041827;57;1140915;-66
2023/08/08 16:08:06;;;;;;;2.63;1.33;;;;;;;15.08;100.00;100190.96;5061929;56;1141098;-65
2023/08/08 16:13:12;;;;;;;3.43;1.60;;;;;;;15.05;100.00;100183.28;5042375;56;1141050;-66
2023/08/08 16:18:17;;;;;;;5.53;1.83;;;;;;;14.96;100.00;100166.42;5043200;56;1140956;-66
2023/08/08 16:23:23;;;;;;;3.50;1.80;;;;;;;14.90;100.00;100171.02;5124832;56;1141176;-65
2023/08/08 16:28:29;;;;;;;5.50;3.10;;;;;;;14.82;100.00;100176.27;5152660;56;1140661;-66
2023/08/08 16:33:34;;;;;;;8.05;5.08;;;;;;;14.76;100.00;100148.95;5106721;56;1140883;-66
2023/08/08 16:38:40;;;;;;;5.05;4.40;;;;;;;14.89;100.00;100132.56;5108721;56;1140889;-66
2023/08/08 16:43:47;;;;;;;3.90;3.53;;;;;;;15.21;100.00;100131.44;5162716;56;1140898;-65
2023/08/08 16:48:54;;;;;;;7.33;2.73;;;;;;;15.47;100.00;100133.56;5108531;56;1140715;-66
2023/08/08 16:54:00;;;;;;;4.83;2.43;;;;;;;15.69;100.00;100132.70;5057497;56;1140869;-65
2023/08/08 16:59:06;;;;;;;7.60;2.77;;;;;;;16.01;100.00;100136.80;5077411;57;1140926;-66
2023/08/08 17:04:14;;;;;;;5.33;3.27;;;;;;;16.01;100.00;100136.80;5057483;57;1140774;-66
2023/08/08 17:09:19;;;;;;;11.77;5.87;;;;;;;16.06;100.00;100148.28;5057281;57;1140718;-66
2023/08/08 17:14:25;;;;;;;4.43;1.50;;;;;;;15.98;100.00;100150.45;5056844;57;1142992;-65
2023/08/08 17:19:31;;;;;;;3.23;2.13;;;;;;;15.97;100.00;100158.11;5077297;57;1141006;-65
2023/08/08 17:24:37;;;;;;;1.80;1.70;;;;;;;15.87;100.00;100169.92;5045573;56;1140971;-66
2023/08/08 17:29:42;;;;;;;4.50;1.70;;;;;;;15.77;100.00;100164.70;5042076;56;1140804;-65
2023/08/08 17:34:48;;;;;;;1.40;1.30;;;;;;;15.69;100.00;100176.19;5062193;56;1140878;-66
2023/08/08 17:39:53;;;;;;;1.30;1.20;;;;;;;15.52;100.00;100185.56;5042636;56;1140874;-66
2023/08/08 17:44:59;;;;;;;4.10;1.30;;;;;;;15.36;100.00;100176.48;5072578;56;1141010;-66
2023/08/08 17:50:06;;;;;;;4.13;1.70;;;;;;;15.29;100.00;100183.42;5120685;56;1140666;-65
2023/08/08 17:55:12;;;;;;;2.07;1.40;;;;;;;15.17;100.00;100183.85;5059939;56;1140930;-65
2023/08/08 18:00:18;;;;;;;2.93;1.70;;;;;;;15.09;100.00;100179.32;5053326;56;1140933;-64
2023/08/08 18:05:23;;;;;;;3.20;1.37;;;;;;;15.03;100.00;100189.25;5019114;56;1140987;-65
2023/08/08 18:10:31;;;;;;;1.10;1.00;;;;;;;14.97;100.00;100183.23;5067063;56;1141009;-66
2023/08/08 18:15:38;;;;;;;1.80;1.23;;;;;;;14.94;100.00;100178.21;4946749;58;1140912;-65
2023/08/08 18:20:43;;;;;;;1.42;1.30;;;;;;;14.82;100.00;100168.81;5072449;56;1141004;-65
2023/08/08 18:25:51;;;;;;;1.17;1.03;;;;;;;14.80;100.00;100173.45;5078095;56;1141184;-66
2023/08/08 18:30:57;;;;;;;4.07;1.43;;;;;;;14.75;100.00;100180.55;5052991;56;1141278;-65
2023/08/08 18:36:03;;;;;;;2.63;1.80;;;;;;;14.70;100.00;100192.98;5042261;56;1141091;-65
2023/08/08 18:41:09;;;;;;;9.40;3.40;;;;;;;14.72;100.00;100183.52;5091086;56;1141022;-65
2023/08/08 18:46:17;;;;;;;13.50;8.47;;;;;;;14.78;100.00;100175.77;5126244;56;1140776;-66
2023/08/08 18:51:22;;;;;;;8.40;4.70;;;;;;;14.86;100.00;100174.14;5058711;56;1143127;-65
2023/08/08 18:56:28;;;;;;;6.03;3.00;;;;;;;14.97;100.00;100184.04;5068982;56;1141138;-66
2023/08/08 19:01:34;;;;;;;4.47;3.00;;;;;;;14.92;100.00;100190.34;5078888;56;1140927;-65
2023/08/08 19:06:40;;;;;;;5.30;3.65;;;;;;;14.96;100.00;100197.05;5064705;56;1141033;-65
2023/08/08 19:11:45;;;;;;;7.30;2.50;;;;;;;14.95;100.00;100206.02;5070417;56;1140860;-65
2023/08/08 19:16:51;;;;;;;5.83;3.70;;;;;;;14.91;100.00;100201.15;5078622;56;1140866;-64
2023/08/08 19:21:57;;;;;;;11.00;4.90;;;;;;;14.94;100.00;100202.17;5055491;56;1140757;-65
2023/08/08 19:27:03;;;;;;;12.03;6.20;;;;;;;14.91;100.00;100200.66;4931868;57;1143086;-65
2023/08/08 19:32:09;;;;;;;11.67;6.07;;;;;;;14.86;100.00;100202.09;4914043;58;1143019;-66
2023/08/08 19:37:15;;;;;;;4.20;2.80;;;;;;;14.76;100.00;100201.70;5009954;57;1143210;-65
2023/08/08 19:42:20;;;;;;;3.10;2.10;;;;;;;14.66;100.00;100202.29;5057354;56;1141136;-65
2023/08/08 19:47:26;;;;;;;9.27;3.13;;;;;;;14.53;100.00;100204.47;5059316;56;1140671;-65
2023/08/08 19:52:31;;;;;;;6.77;2.30;;;;;;;14.41;100.00;100207.86;5042599;56;1141114;-66
2023/08/08 19:57:37;;;;;;;2.35;2.20;;;;;;;14.34;100.00;100216.08;5050850;56;1141317;-65
2023/08/08 20:02:43;;;;;;;5.12;2.37;;;;;;;14.28;100.00;100210.02;5073711;56;1140666;-66
2023/08/08 20:07:48;;;;;;;3.98;2.20;;;;;;;14.22;100.00;100205.28;5120533;56;1140818;-65
2023/08/08 20:12:54;;;;;;;3.07;2.20;;;;;;;14.19;100.00;100207.44;5126522;56;1140879;-65
2023/08/08 20:17:59;;;;;;;4.67;2.03;;;;;;;14.19;100.00;100207.44;5115141;56;1140783;-66
2023/08/08 20:23:05;;;;;;;2.27;1.90;;;;;;;14.15;100.00;100208.71;5007765;57;1141054;-65
2023/08/08 20:28:11;;;;;;;5.65;2.10;;;;;;;14.07;100.00;100213.43;5062142;56;1141155;-65
2023/08/08 20:33:16;;;;;;;6.00;1.93;;;;;;;14.03;100.00;100219.56;5043604;56;1141013;-65
2023/08/08 20:38:23;;;;;;;3.12;1.62;;;;;;;14.00;100.00;100225.17;5056231;56;1140696;-67
2023/08/08 20:43:28;;;;;;;1.00;0.87;;;;;;;13.94;100.00;100216.45;5060167;57;1141349;-65
2023/08/08 20:48:35;;;;;;;2.80;0.90;;;;;;;13.83;100.00;100220.63;5041764;57;1140854;-65
2023/08/08 20:53:40;;;;;;;2.23;1.77;;;;;;;13.77;100.00;100215.89;5041952;57;1141044;-67
2023/08/08 20:58:46;;;;;;;4.50;2.15;;;;;;;13.68;100.00;100212.31;5062059;57;1141063;-65
2023/08/08 21:03:52;;;;;;;1.63;1.10;;;;;;;13.62;100.00;100228.82;4880001;59;1140871;-64
2023/08/08 21:08:57;;;;;;;1.90;1.03;;;;;;;13.59;100.00;100209.21;5041880;57;1140936;-65
2023/08/08 21:14:04;;;;;;;3.10;0.93;;;;;;;13.56;100.00;100215.30;4898630;59;1140940;-65
2023/08/08 21:19:09;;;;;;;0.93;0.93;;;;;;;13.50;100.00;100207.41;5042577;56;1140850;-64
2023/08/08 21:24:15;;;;;;;3.17;1.20;;;;;;;13.52;100.00;100222.72;5042768;56;1140822;-66
2023/08/08 21:29:20;;;;;;;0.80;0.80;;;;;;;13.49;100.00;100208.88;5062273;56;1140913;-64
2023/08/08 21:34:26;;;;;;;2.13;1.07;;;;;;;13.45;100.00;100216.30;5058270;56;1140827;-65
2023/08/08 21:39:33;;;;;;;1.24;1.14;;;;;;;13.43;100.00;100215.62;5158104;56;1150202;-67
2023/08/08 21:44:38;;;;;;;2.37;1.30;;;;;;;13.44;100.00;100225.77;5157063;56;1140903;-65
2023/08/08 21:49:44;;;;;;;7.17;1.05;;;;;;;13.38;100.00;100223.19;5140968;56;1140834;-65
2023/08/08 21:54:50;;;;;;;2.12;1.30;;;;;;;13.36;100.00;100225.98;5044804;56;1141036;-65
2023/08/08 21:59:55;;;;;;;2.10;1.20;;;;;;;13.32;100.00;100239.68;5062203;57;1140821;-65
2023/08/08 22:05:01;;;;;;;2.00;1.00;;;;;;;13.27;100.00;100239.30;5042373;57;1140857;-66
2023/08/08 22:10:07;;;;;;;2.47;1.10;;;;;;;13.27;100.00;100232.66;5041039;57;1140827;-64
2023/08/08 22:15:13;;;;;;;2.03;1.00;;;;;;;13.26;100.00;100230.48;5096261;56;1140794;-65
2023/08/08 22:20:19;;;;;;;3.50;1.10;;;;;;;13.28;100.00;100239.16;5126792;56;1140726;-65
2023/08/08 22:25:25;;;;;;;1.05;0.93;;;;;;;13.28;100.00;100241.81;5110447;56;1140789;-65
2023/08/08 22:30:49;;;;;;;1.03;1.00;;;;;;;13.24;100.00;100243.56;5042767;57;1141122;-65
2023/08/08 22:35:55;;;;;;;3.30;1.40;;;;;;;13.25;100.00;100238.11;5062153;56;1140849;-64
2023/08/08 22:41:00;;;;;;;3.07;1.10;;;;;;;13.28;100.00;100247.61;5042333;57;1140941;-65
2023/08/08 22:46:06;;;;;;;3.63;1.03;;;;;;;13.27;100.00;100254.74;5042177;57;1141020;-65
2023/08/08 22:51:11;;;;;;;1.63;0.97;;;;;;;13.25;100.00;100259.84;5061807;57;1140950;-65
2023/08/08 22:56:17;;;;;;;2.57;1.37;;;;;;;13.20;100.00;100258.09;4880202;59;1140755;-65
2023/08/08 23:01:23;;;;;;;4.25;1.60;;;;;;;13.15;100.00;100261.16;5042133;57;1140817;-64